sensor_id;sensor_type;location;lat;lon;timestamp;P1;durP1;ratioP1;P2;durP2;ratioP2
51358;SDS011;37448;51.588;7.248;2022-12-26T00:01:29;20.13;;;10.18;;
51358;SDS011;37448;51.588;7.248;2022-12-26T00:03:31;21.95;;;11.20;;
51358;SDS011;37448;51.588;7.248;2022-12-26T00:05:35;21.25;;;10.35;;
51358;SDS011;37448;51.588;7.248;2022-12-26T00:07:36;20.50;;;10.32;;
51358;SDS011;37448;51.588;7.248;2022-12-26T00:09:36;19.48;;;9.80;;
51358;SDS011;37448;51.588;7.248;2022-12-26T00:11:37;19.48;;;9.82;;
51358;SDS011;37448;51.588;7.248;2022-12-26T00:13:37;18.02;;;8.93;;
51358;SDS011;37448;51.588;7.248;2022-12-26T00:15:39;19.58;;;9.43;;
51358;SDS011;37448;51.588;7.248;2022-12-26T00:17:40;17.45;;;9.20;;
51358;SDS011;37448;51.588;7.248;2022-12-26T00:19:40;14.82;;;7.22;;
51358;SDS011;37448;51.588;7.248;2022-12-26T00:21:41;18.60;;;7.78;;
51358;SDS011;37448;51.588;7.248;2022-12-26T00:23:41;16.67;;;7.63;;
51358;SDS011;37448;51.588;7.248;2022-12-26T00:25:42;14.57;;;6.72;;
51358;SDS011;37448;51.588;7.248;2022-12-26T00:27:43;13.90;;;6.18;;
51358;SDS011;37448;51.588;7.248;2022-12-26T00:29:43;14.57;;;6.63;;
51358;SDS011;37448;51.588;7.248;2022-12-26T00:31:43;13.70;;;6.40;;
51358;SDS011;37448;51.588;7.248;2022-12-26T00:33:46;10.52;;;4.80;;
51358;SDS011;37448;51.588;7.248;2022-12-26T00:35:46;10.35;;;4.43;;
51358;SDS011;37448;51.588;7.248;2022-12-26T00:37:47;11.20;;;5.05;;
51358;SDS011;37448;51.588;7.248;2022-12-26T00:39:47;9.60;;;4.40;;
51358;SDS011;37448;51.588;7.248;2022-12-26T00:41:47;15.82;;;5.80;;
51358;SDS011;37448;51.588;7.248;2022-12-26T00:43:48;11.75;;;5.75;;
51358;SDS011;37448;51.588;7.248;2022-12-26T00:45:49;9.38;;;3.85;;
51358;SDS011;37448;51.588;7.248;2022-12-26T00:47:49;9.00;;;3.80;;
51358;SDS011;37448;51.588;7.248;2022-12-26T00:49:50;8.77;;;3.95;;
51358;SDS011;37448;51.588;7.248;2022-12-26T00:51:50;8.02;;;3.40;;
51358;SDS011;37448;51.588;7.248;2022-12-26T00:53:50;9.80;;;3.25;;
51358;SDS011;37448;51.588;7.248;2022-12-26T00:55:51;9.07;;;3.25;;
51358;SDS011;37448;51.588;7.248;2022-12-26T00:57:52;8.48;;;3.40;;
51358;SDS011;37448;51.588;7.248;2022-12-26T00:59:52;9.00;;;3.30;;
51358;SDS011;37448;51.588;7.248;2022-12-26T01:01:53;8.05;;;3.70;;
51358;SDS011;37448;51.588;7.248;2022-12-26T01:03:53;7.35;;;3.30;;
51358;SDS011;37448;51.588;7.248;2022-12-26T01:05:53;7.03;;;3.08;;
51358;SDS011;37448;51.588;7.248;2022-12-26T01:07:54;7.20;;;3.40;;
51358;SDS011;37448;51.588;7.248;2022-12-26T01:09:54;8.25;;;3.70;;
51358;SDS011;37448;51.588;7.248;2022-12-26T01:11:55;9.80;;;3.80;;
51358;SDS011;37448;51.588;7.248;2022-12-26T01:13:55;7.43;;;3.47;;
51358;SDS011;37448;51.588;7.248;2022-12-26T01:15:55;8.02;;;3.72;;
51358;SDS011;37448;51.588;7.248;2022-12-26T01:17:57;8.18;;;4.10;;
51358;SDS011;37448;51.588;7.248;2022-12-26T01:21:59;7.75;;;3.95;;
51358;SDS011;37448;51.588;7.248;2022-12-26T01:23:59;8.35;;;4.20;;
51358;SDS011;37448;51.588;7.248;2022-12-26T01:26:00;10.70;;;4.60;;
51358;SDS011;37448;51.588;7.248;2022-12-26T01:28:00;9.45;;;4.95;;
51358;SDS011;37448;51.588;7.248;2022-12-26T01:30:01;11.55;;;5.03;;
51358;SDS011;37448;51.588;7.248;2022-12-26T01:32:01;9.75;;;4.88;;
51358;SDS011;37448;51.588;7.248;2022-12-26T01:34:02;9.98;;;5.03;;
51358;SDS011;37448;51.588;7.248;2022-12-26T01:36:02;11.35;;;4.75;;
51358;SDS011;37448;51.588;7.248;2022-12-26T01:38:03;11.20;;;4.85;;
51358;SDS011;37448;51.588;7.248;2022-12-26T01:40:03;11.88;;;5.78;;
51358;SDS011;37448;51.588;7.248;2022-12-26T01:42:10;13.30;;;6.07;;
51358;SDS011;37448;51.588;7.248;2022-12-26T01:46:50;10.60;;;5.85;;
51358;SDS011;37448;51.588;7.248;2022-12-26T01:48:51;13.07;;;5.70;;
51358;SDS011;37448;51.588;7.248;2022-12-26T01:50:56;12.07;;;6.13;;
51358;SDS011;37448;51.588;7.248;2022-12-26T01:53:02;11.85;;;5.45;;
51358;SDS011;37448;51.588;7.248;2022-12-26T01:55:10;13.45;;;6.43;;
51358;SDS011;37448;51.588;7.248;2022-12-26T01:57:15;12.15;;;6.13;;
51358;SDS011;37448;51.588;7.248;2022-12-26T01:59:21;11.75;;;5.38;;
51358;SDS011;37448;51.588;7.248;2022-12-26T02:01:27;11.23;;;6.20;;
51358;SDS011;37448;51.588;7.248;2022-12-26T02:03:32;11.35;;;6.07;;
51358;SDS011;37448;51.588;7.248;2022-12-26T02:05:54;11.35;;;5.85;;
51358;SDS011;37448;51.588;7.248;2022-12-26T02:07:58;13.60;;;6.82;;
51358;SDS011;37448;51.588;7.248;2022-12-26T02:10:00;12.52;;;6.20;;
51358;SDS011;37448;51.588;7.248;2022-12-26T02:12:05;11.60;;;5.82;;
51358;SDS011;37448;51.588;7.248;2022-12-26T02:14:09;9.00;;;5.13;;
51358;SDS011;37448;51.588;7.248;2022-12-26T02:16:11;9.30;;;5.22;;
51358;SDS011;37448;51.588;7.248;2022-12-26T02:18:13;9.13;;;5.25;;
51358;SDS011;37448;51.588;7.248;2022-12-26T02:20:20;9.15;;;4.70;;
51358;SDS011;37448;51.588;7.248;2022-12-26T02:24:46;9.60;;;4.82;;
51358;SDS011;37448;51.588;7.248;2022-12-26T02:29:19;8.30;;;4.40;;
51358;SDS011;37448;51.588;7.248;2022-12-26T02:31:35;7.90;;;4.25;;
51358;SDS011;37448;51.588;7.248;2022-12-26T02:33:55;9.25;;;4.10;;
51358;SDS011;37448;51.588;7.248;2022-12-26T02:38:30;9.25;;;4.05;;
51358;SDS011;37448;51.588;7.248;2022-12-26T02:42:56;7.28;;;3.63;;
51358;SDS011;37448;51.588;7.248;2022-12-26T02:45:13;8.27;;;3.88;;
51358;SDS011;37448;51.588;7.248;2022-12-26T02:47:44;8.50;;;3.88;;
51358;SDS011;37448;51.588;7.248;2022-12-26T02:55:37;8.05;;;3.72;;
51358;SDS011;37448;51.588;7.248;2022-12-26T02:58:05;6.20;;;3.13;;
51358;SDS011;37448;51.588;7.248;2022-12-26T03:00:54;6.80;;;3.38;;
51358;SDS011;37448;51.588;7.248;2022-12-26T03:03:21;6.43;;;2.90;;
51358;SDS011;37448;51.588;7.248;2022-12-26T03:05:56;7.50;;;3.00;;
51358;SDS011;37448;51.588;7.248;2022-12-26T03:08:23;5.53;;;2.97;;
51358;SDS011;37448;51.588;7.248;2022-12-26T03:10:49;9.13;;;3.25;;
51358;SDS011;37448;51.588;7.248;2022-12-26T03:13:12;6.38;;;3.00;;
51358;SDS011;37448;51.588;7.248;2022-12-26T03:15:19;7.65;;;2.88;;
51358;SDS011;37448;51.588;7.248;2022-12-26T03:17:25;8.35;;;3.53;;
51358;SDS011;37448;51.588;7.248;2022-12-26T03:19:29;6.18;;;2.75;;
51358;SDS011;37448;51.588;7.248;2022-12-26T03:21:42;8.02;;;3.08;;
51358;SDS011;37448;51.588;7.248;2022-12-26T03:23:45;7.47;;;3.50;;
51358;SDS011;37448;51.588;7.248;2022-12-26T03:26:00;6.72;;;3.13;;
51358;SDS011;37448;51.588;7.248;2022-12-26T03:28:24;6.32;;;3.35;;
51358;SDS011;37448;51.588;7.248;2022-12-26T03:30:25;7.40;;;4.15;;
51358;SDS011;37448;51.588;7.248;2022-12-26T03:32:44;8.50;;;4.60;;
51358;SDS011;37448;51.588;7.248;2022-12-26T03:34:44;8.27;;;4.68;;
51358;SDS011;37448;51.588;7.248;2022-12-26T03:36:51;11.60;;;4.85;;
51358;SDS011;37448;51.588;7.248;2022-12-26T03:38:55;10.77;;;5.65;;
51358;SDS011;37448;51.588;7.248;2022-12-26T03:41:08;11.50;;;6.30;;
51358;SDS011;37448;51.588;7.248;2022-12-26T03:43:47;10.70;;;6.30;;
51358;SDS011;37448;51.588;7.248;2022-12-26T03:49:11;14.20;;;7.13;;
51358;SDS011;37448;51.588;7.248;2022-12-26T03:52:05;15.68;;;7.93;;
51358;SDS011;37448;51.588;7.248;2022-12-26T03:54:53;16.42;;;8.63;;
51358;SDS011;37448;51.588;7.248;2022-12-26T03:57:24;14.50;;;8.40;;
51358;SDS011;37448;51.588;7.248;2022-12-26T04:00:06;16.33;;;9.25;;
51358;SDS011;37448;51.588;7.248;2022-12-26T04:02:28;17.65;;;9.93;;
51358;SDS011;37448;51.588;7.248;2022-12-26T04:04:50;17.47;;;9.70;;
51358;SDS011;37448;51.588;7.248;2022-12-26T04:07:16;16.30;;;9.60;;
51358;SDS011;37448;51.588;7.248;2022-12-26T04:09:42;14.77;;;8.23;;
51358;SDS011;37448;51.588;7.248;2022-12-26T04:12:11;14.52;;;8.70;;
51358;SDS011;37448;51.588;7.248;2022-12-26T04:14:54;13.98;;;8.18;;
51358;SDS011;37448;51.588;7.248;2022-12-26T04:17:24;14.10;;;8.07;;
51358;SDS011;37448;51.588;7.248;2022-12-26T04:22:05;13.25;;;8.05;;
51358;SDS011;37448;51.588;7.248;2022-12-26T04:24:27;12.90;;;7.60;;
51358;SDS011;37448;51.588;7.248;2022-12-26T04:26:53;16.08;;;8.48;;
51358;SDS011;37448;51.588;7.248;2022-12-26T04:29:17;13.93;;;8.15;;
51358;SDS011;37448;51.588;7.248;2022-12-26T04:31:44;13.52;;;7.78;;
51358;SDS011;37448;51.588;7.248;2022-12-26T04:34:12;13.43;;;7.05;;
51358;SDS011;37448;51.588;7.248;2022-12-26T04:36:45;13.23;;;7.03;;
51358;SDS011;37448;51.588;7.248;2022-12-26T04:39:11;11.15;;;6.90;;
51358;SDS011;37448;51.588;7.248;2022-12-26T04:41:35;13.32;;;6.60;;
51358;SDS011;37448;51.588;7.248;2022-12-26T04:43:57;12.45;;;7.38;;
51358;SDS011;37448;51.588;7.248;2022-12-26T04:46:11;10.57;;;5.85;;
51358;SDS011;37448;51.588;7.248;2022-12-26T04:48:12;10.00;;;6.25;;
51358;SDS011;37448;51.588;7.248;2022-12-26T04:50:31;11.38;;;6.15;;
51358;SDS011;37448;51.588;7.248;2022-12-26T04:52:31;9.77;;;5.85;;
51358;SDS011;37448;51.588;7.248;2022-12-26T04:54:50;9.10;;;5.35;;
51358;SDS011;37448;51.588;7.248;2022-12-26T04:56:51;9.95;;;5.50;;
51358;SDS011;37448;51.588;7.248;2022-12-26T04:58:52;9.38;;;5.22;;
51358;SDS011;37448;51.588;7.248;2022-12-26T05:00:52;8.80;;;5.13;;
51358;SDS011;37448;51.588;7.248;2022-12-26T05:03:12;9.90;;;5.15;;
51358;SDS011;37448;51.588;7.248;2022-12-26T05:05:33;9.50;;;4.85;;
51358;SDS011;37448;51.588;7.248;2022-12-26T05:07:56;10.52;;;4.85;;
51358;SDS011;37448;51.588;7.248;2022-12-26T05:10:17;8.70;;;4.60;;
51358;SDS011;37448;51.588;7.248;2022-12-26T05:12:19;9.07;;;4.72;;
51358;SDS011;37448;51.588;7.248;2022-12-26T05:14:20;8.68;;;5.20;;
51358;SDS011;37448;51.588;7.248;2022-12-26T05:16:20;10.00;;;5.47;;
51358;SDS011;37448;51.588;7.248;2022-12-26T05:18:40;9.63;;;5.72;;
51358;SDS011;37448;51.588;7.248;2022-12-26T05:21:00;8.38;;;5.10;;
51358;SDS011;37448;51.588;7.248;2022-12-26T05:23:20;8.68;;;5.10;;
51358;SDS011;37448;51.588;7.248;2022-12-26T05:25:42;9.75;;;5.65;;
51358;SDS011;37448;51.588;7.248;2022-12-26T05:28:03;9.73;;;5.38;;
51358;SDS011;37448;51.588;7.248;2022-12-26T05:30:22;9.85;;;5.65;;
51358;SDS011;37448;51.588;7.248;2022-12-26T05:32:23;10.48;;;5.78;;
51358;SDS011;37448;51.588;7.248;2022-12-26T05:34:42;10.75;;;5.55;;
51358;SDS011;37448;51.588;7.248;2022-12-26T05:36:44;9.93;;;5.68;;
51358;SDS011;37448;51.588;7.248;2022-12-26T05:38:50;10.13;;;5.30;;
51358;SDS011;37448;51.588;7.248;2022-12-26T05:40:51;11.65;;;6.60;;
51358;SDS011;37448;51.588;7.248;2022-12-26T05:42:51;10.50;;;5.32;;
51358;SDS011;37448;51.588;7.248;2022-12-26T05:44:51;11.35;;;6.38;;
51358;SDS011;37448;51.588;7.248;2022-12-26T05:46:52;10.00;;;5.32;;
51358;SDS011;37448;51.588;7.248;2022-12-26T05:48:52;11.63;;;5.75;;
51358;SDS011;37448;51.588;7.248;2022-12-26T05:50:56;10.63;;;5.50;;
51358;SDS011;37448;51.588;7.248;2022-12-26T05:52:58;9.77;;;5.28;;
51358;SDS011;37448;51.588;7.248;2022-12-26T05:54:58;10.00;;;6.13;;
51358;SDS011;37448;51.588;7.248;2022-12-26T05:56:59;9.90;;;5.75;;
51358;SDS011;37448;51.588;7.248;2022-12-26T05:59:00;11.40;;;5.80;;
51358;SDS011;37448;51.588;7.248;2022-12-26T06:03:05;11.60;;;6.07;;
51358;SDS011;37448;51.588;7.248;2022-12-26T06:05:06;10.10;;;6.00;;
51358;SDS011;37448;51.588;7.248;2022-12-26T06:07:07;11.32;;;5.82;;
51358;SDS011;37448;51.588;7.248;2022-12-26T06:09:07;10.23;;;6.20;;
51358;SDS011;37448;51.588;7.248;2022-12-26T06:11:09;11.57;;;6.28;;
51358;SDS011;37448;51.588;7.248;2022-12-26T06:13:10;12.15;;;6.05;;
51358;SDS011;37448;51.588;7.248;2022-12-26T06:15:11;11.10;;;6.57;;
51358;SDS011;37448;51.588;7.248;2022-12-26T06:17:11;12.77;;;6.38;;
51358;SDS011;37448;51.588;7.248;2022-12-26T06:19:13;13.05;;;6.45;;
51358;SDS011;37448;51.588;7.248;2022-12-26T06:21:15;12.70;;;6.38;;
51358;SDS011;37448;51.588;7.248;2022-12-26T06:23:17;12.80;;;6.55;;
51358;SDS011;37448;51.588;7.248;2022-12-26T06:25:17;12.68;;;6.72;;
51358;SDS011;37448;51.588;7.248;2022-12-26T06:27:18;12.48;;;6.68;;
51358;SDS011;37448;51.588;7.248;2022-12-26T06:29:19;15.15;;;6.72;;
51358;SDS011;37448;51.588;7.248;2022-12-26T06:31:20;11.57;;;6.35;;
51358;SDS011;37448;51.588;7.248;2022-12-26T06:35:22;12.10;;;6.35;;
51358;SDS011;37448;51.588;7.248;2022-12-26T06:37:22;10.02;;;5.53;;
51358;SDS011;37448;51.588;7.248;2022-12-26T06:39:23;11.05;;;6.43;;
51358;SDS011;37448;51.588;7.248;2022-12-26T06:41:23;12.93;;;7.25;;
51358;SDS011;37448;51.588;7.248;2022-12-26T06:43:24;12.32;;;6.38;;
51358;SDS011;37448;51.588;7.248;2022-12-26T06:45:25;11.18;;;6.30;;
51358;SDS011;37448;51.588;7.248;2022-12-26T06:47:25;11.57;;;6.13;;
51358;SDS011;37448;51.588;7.248;2022-12-26T06:49:25;11.40;;;5.55;;
51358;SDS011;37448;51.588;7.248;2022-12-26T06:51:27;12.05;;;5.75;;
51358;SDS011;37448;51.588;7.248;2022-12-26T06:53:28;12.07;;;6.75;;
51358;SDS011;37448;51.588;7.248;2022-12-26T06:55:28;10.90;;;6.03;;
51358;SDS011;37448;51.588;7.248;2022-12-26T06:57:28;11.88;;;6.13;;
51358;SDS011;37448;51.588;7.248;2022-12-26T06:59:29;11.82;;;6.05;;
51358;SDS011;37448;51.588;7.248;2022-12-26T07:01:30;12.63;;;6.28;;
51358;SDS011;37448;51.588;7.248;2022-12-26T07:05:34;11.05;;;6.63;;
51358;SDS011;37448;51.588;7.248;2022-12-26T07:07:35;12.43;;;6.38;;
51358;SDS011;37448;51.588;7.248;2022-12-26T07:09:36;10.88;;;5.63;;
51358;SDS011;37448;51.588;7.248;2022-12-26T07:11:37;13.15;;;7.30;;
51358;SDS011;37448;51.588;7.248;2022-12-26T07:15:39;11.52;;;6.30;;
51358;SDS011;37448;51.588;7.248;2022-12-26T07:17:40;10.75;;;5.90;;
51358;SDS011;37448;51.588;7.248;2022-12-26T07:19:40;12.25;;;5.90;;
51358;SDS011;37448;51.588;7.248;2022-12-26T07:21:41;12.27;;;6.32;;
51358;SDS011;37448;51.588;7.248;2022-12-26T07:23:41;11.60;;;6.25;;
51358;SDS011;37448;51.588;7.248;2022-12-26T07:25:41;11.80;;;6.28;;
51358;SDS011;37448;51.588;7.248;2022-12-26T07:27:42;10.77;;;5.57;;
51358;SDS011;37448;51.588;7.248;2022-12-26T07:29:42;11.70;;;6.32;;
51358;SDS011;37448;51.588;7.248;2022-12-26T07:31:42;11.10;;;5.18;;
51358;SDS011;37448;51.588;7.248;2022-12-26T07:33:47;10.20;;;5.07;;
51358;SDS011;37448;51.588;7.248;2022-12-26T07:35:48;10.52;;;5.40;;
51358;SDS011;37448;51.588;7.248;2022-12-26T07:37:48;8.77;;;4.38;;
51358;SDS011;37448;51.588;7.248;2022-12-26T07:39:48;9.05;;;4.75;;
51358;SDS011;37448;51.588;7.248;2022-12-26T07:41:49;9.68;;;4.57;;
51358;SDS011;37448;51.588;7.248;2022-12-26T07:43:58;10.98;;;4.75;;
51358;SDS011;37448;51.588;7.248;2022-12-26T07:45:58;9.45;;;4.20;;
51358;SDS011;37448;51.588;7.248;2022-12-26T07:47:59;9.13;;;4.43;;
51358;SDS011;37448;51.588;7.248;2022-12-26T07:49:59;8.48;;;4.47;;
51358;SDS011;37448;51.588;7.248;2022-12-26T07:51:59;8.82;;;4.68;;
51358;SDS011;37448;51.588;7.248;2022-12-26T07:54:01;8.65;;;4.43;;
51358;SDS011;37448;51.588;7.248;2022-12-26T07:56:01;8.68;;;4.50;;
51358;SDS011;37448;51.588;7.248;2022-12-26T07:58:03;11.68;;;4.55;;
51358;SDS011;37448;51.588;7.248;2022-12-26T08:00:03;8.68;;;4.18;;
51358;SDS011;37448;51.588;7.248;2022-12-26T08:02:12;8.35;;;4.85;;
51358;SDS011;37448;51.588;7.248;2022-12-26T08:04:12;7.88;;;3.83;;
51358;SDS011;37448;51.588;7.248;2022-12-26T08:06:13;7.32;;;3.72;;
51358;SDS011;37448;51.588;7.248;2022-12-26T08:08:13;10.15;;;4.97;;
51358;SDS011;37448;51.588;7.248;2022-12-26T08:10:15;9.90;;;4.40;;
51358;SDS011;37448;51.588;7.248;2022-12-26T08:12:16;7.53;;;3.90;;
51358;SDS011;37448;51.588;7.248;2022-12-26T08:14:20;8.48;;;4.65;;
51358;SDS011;37448;51.588;7.248;2022-12-26T08:16:20;10.15;;;4.80;;
51358;SDS011;37448;51.588;7.248;2022-12-26T08:18:21;10.88;;;4.22;;
51358;SDS011;37448;51.588;7.248;2022-12-26T08:20:22;8.88;;;3.75;;
51358;SDS011;37448;51.588;7.248;2022-12-26T08:22:22;8.48;;;4.45;;
51358;SDS011;37448;51.588;7.248;2022-12-26T08:24:22;7.88;;;3.95;;
51358;SDS011;37448;51.588;7.248;2022-12-26T08:26:23;8.07;;;3.83;;
51358;SDS011;37448;51.588;7.248;2022-12-26T08:28:23;8.10;;;3.95;;
51358;SDS011;37448;51.588;7.248;2022-12-26T08:30:24;7.47;;;3.58;;
51358;SDS011;37448;51.588;7.248;2022-12-26T08:32:24;7.90;;;3.30;;
51358;SDS011;37448;51.588;7.248;2022-12-26T08:34:24;7.15;;;3.25;;
51358;SDS011;37448;51.588;7.248;2022-12-26T08:36:31;6.85;;;3.35;;
51358;SDS011;37448;51.588;7.248;2022-12-26T08:38:31;7.10;;;3.17;;
51358;SDS011;37448;51.588;7.248;2022-12-26T08:40:31;5.80;;;2.72;;
51358;SDS011;37448;51.588;7.248;2022-12-26T08:42:32;8.05;;;2.70;;
51358;SDS011;37448;51.588;7.248;2022-12-26T08:44:34;5.47;;;2.67;;
51358;SDS011;37448;51.588;7.248;2022-12-26T08:46:34;8.55;;;2.97;;
51358;SDS011;37448;51.588;7.248;2022-12-26T08:48:35;5.63;;;2.45;;
51358;SDS011;37448;51.588;7.248;2022-12-26T08:52:39;4.90;;;2.30;;
51358;SDS011;37448;51.588;7.248;2022-12-26T08:54:41;7.10;;;2.05;;
51358;SDS011;37448;51.588;7.248;2022-12-26T08:56:41;6.32;;;2.33;;
51358;SDS011;37448;51.588;7.248;2022-12-26T08:58:42;10.68;;;3.05;;
51358;SDS011;37448;51.588;7.248;2022-12-26T09:00:43;5.97;;;2.60;;
51358;SDS011;37448;51.588;7.248;2022-12-26T09:02:43;7.90;;;2.50;;
51358;SDS011;37448;51.588;7.248;2022-12-26T09:04:43;7.70;;;2.65;;
51358;SDS011;37448;51.588;7.248;2022-12-26T09:06:44;7.15;;;2.40;;
51358;SDS011;37448;51.588;7.248;2022-12-26T09:08:44;6.85;;;2.70;;
51358;SDS011;37448;51.588;7.248;2022-12-26T09:10:44;7.18;;;2.92;;
51358;SDS011;37448;51.588;7.248;2022-12-26T09:12:45;5.53;;;2.17;;
51358;SDS011;37448;51.588;7.248;2022-12-26T09:14:45;7.07;;;2.28;;
51358;SDS011;37448;51.588;7.248;2022-12-26T09:16:47;5.68;;;2.63;;
51358;SDS011;37448;51.588;7.248;2022-12-26T09:18:47;7.15;;;2.47;;
51358;SDS011;37448;51.588;7.248;2022-12-26T09:20:52;5.75;;;2.63;;
51358;SDS011;37448;51.588;7.248;2022-12-26T09:22:52;5.63;;;2.80;;
51358;SDS011;37448;51.588;7.248;2022-12-26T09:24:54;9.10;;;3.17;;
51358;SDS011;37448;51.588;7.248;2022-12-26T09:26:55;8.52;;;3.20;;
51358;SDS011;37448;51.588;7.248;2022-12-26T09:28:56;5.85;;;2.70;;
51358;SDS011;37448;51.588;7.248;2022-12-26T09:31:00;6.15;;;3.00;;
51358;SDS011;37448;51.588;7.248;2022-12-26T09:33:01;5.60;;;2.60;;
51358;SDS011;37448;51.588;7.248;2022-12-26T09:35:06;6.35;;;2.50;;
51358;SDS011;37448;51.588;7.248;2022-12-26T09:37:07;6.00;;;2.45;;
51358;SDS011;37448;51.588;7.248;2022-12-26T09:39:09;4.68;;;1.90;;
51358;SDS011;37448;51.588;7.248;2022-12-26T09:45:55;6.50;;;1.73;;
51358;SDS011;37448;51.588;7.248;2022-12-26T09:48:12;4.90;;;1.70;;
51358;SDS011;37448;51.588;7.248;2022-12-26T09:50:30;4.15;;;1.40;;
51358;SDS011;37448;51.588;7.248;2022-12-26T09:55:04;4.60;;;1.50;;
51358;SDS011;37448;51.588;7.248;2022-12-26T09:57:19;4.30;;;1.48;;
51358;SDS011;37448;51.588;7.248;2022-12-26T09:59:28;3.88;;;1.38;;
51358;SDS011;37448;51.588;7.248;2022-12-26T10:01:34;3.47;;;1.50;;
51358;SDS011;37448;51.588;7.248;2022-12-26T10:03:39;5.30;;;1.30;;
51358;SDS011;37448;51.588;7.248;2022-12-26T10:05:56;4.38;;;1.20;;
51358;SDS011;37448;51.588;7.248;2022-12-26T10:08:19;5.18;;;1.40;;
51358;SDS011;37448;51.588;7.248;2022-12-26T10:10:29;10.35;;;1.38;;
51358;SDS011;37448;51.588;7.248;2022-12-26T10:24:11;5.68;;;1.30;;
51358;SDS011;37448;51.588;7.248;2022-12-26T10:26:17;4.28;;;1.75;;
51358;SDS011;37448;51.588;7.248;2022-12-26T10:28:25;5.00;;;1.80;;
51358;SDS011;37448;51.588;7.248;2022-12-26T10:30:48;3.50;;;1.40;;
51358;SDS011;37448;51.588;7.248;2022-12-26T10:32:57;5.90;;;2.05;;
51358;SDS011;37448;51.588;7.248;2022-12-26T10:35:01;5.10;;;1.50;;
51358;SDS011;37448;51.588;7.248;2022-12-26T10:37:26;4.13;;;1.77;;
51358;SDS011;37448;51.588;7.248;2022-12-26T10:41:41;6.47;;;1.92;;
51358;SDS011;37448;51.588;7.248;2022-12-26T10:43:45;4.20;;;1.70;;
51358;SDS011;37448;51.588;7.248;2022-12-26T10:48:08;5.85;;;1.90;;
51358;SDS011;37448;51.588;7.248;2022-12-26T10:50:16;5.45;;;1.63;;
51358;SDS011;37448;51.588;7.248;2022-12-26T10:52:20;3.97;;;1.50;;
51358;SDS011;37448;51.588;7.248;2022-12-26T10:54:25;6.70;;;1.42;;
51358;SDS011;37448;51.588;7.248;2022-12-26T10:56:27;3.88;;;1.40;;
51358;SDS011;37448;51.588;7.248;2022-12-26T10:58:31;5.47;;;1.70;;
51358;SDS011;37448;51.588;7.248;2022-12-26T11:00:34;8.07;;;2.33;;
51358;SDS011;37448;51.588;7.248;2022-12-26T11:02:35;3.47;;;1.58;;
51358;SDS011;37448;51.588;7.248;2022-12-26T11:04:35;2.95;;;1.17;;
51358;SDS011;37448;51.588;7.248;2022-12-26T11:06:36;4.00;;;1.20;;
51358;SDS011;37448;51.588;7.248;2022-12-26T11:08:47;4.25;;;1.20;;
51358;SDS011;37448;51.588;7.248;2022-12-26T11:13:17;4.75;;;1.38;;
51358;SDS011;37448;51.588;7.248;2022-12-26T11:15:25;3.97;;;1.35;;
51358;SDS011;37448;51.588;7.248;2022-12-26T11:17:48;5.20;;;1.40;;
51358;SDS011;37448;51.588;7.248;2022-12-26T11:20:09;6.13;;;1.52;;
51358;SDS011;37448;51.588;7.248;2022-12-26T11:22:27;5.25;;;1.50;;
51358;SDS011;37448;51.588;7.248;2022-12-26T11:24:28;6.13;;;1.70;;
51358;SDS011;37448;51.588;7.248;2022-12-26T11:26:28;3.78;;;1.77;;
51358;SDS011;37448;51.588;7.248;2022-12-26T11:28:35;6.03;;;1.65;;
51358;SDS011;37448;51.588;7.248;2022-12-26T11:30:36;9.25;;;1.90;;
51358;SDS011;37448;51.588;7.248;2022-12-26T11:32:43;5.65;;;1.83;;
51358;SDS011;37448;51.588;7.248;2022-12-26T11:34:46;6.32;;;2.03;;
51358;SDS011;37448;51.588;7.248;2022-12-26T11:36:48;6.07;;;1.42;;
51358;SDS011;37448;51.588;7.248;2022-12-26T11:38:52;4.03;;;1.30;;
51358;SDS011;37448;51.588;7.248;2022-12-26T11:41:10;6.22;;;1.80;;
51358;SDS011;37448;51.588;7.248;2022-12-26T11:43:32;6.05;;;1.90;;
51358;SDS011;37448;51.588;7.248;2022-12-26T11:45:35;8.57;;;1.88;;
51358;SDS011;37448;51.588;7.248;2022-12-26T11:47:43;5.03;;;1.15;;
51358;SDS011;37448;51.588;7.248;2022-12-26T11:54:47;3.97;;;1.08;;
51358;SDS011;37448;51.588;7.248;2022-12-26T11:56:58;5.97;;;1.35;;
51358;SDS011;37448;51.588;7.248;2022-12-26T11:59:15;6.10;;;1.17;;
51358;SDS011;37448;51.588;7.248;2022-12-26T12:01:18;3.20;;;1.13;;
51358;SDS011;37448;51.588;7.248;2022-12-26T12:03:20;4.60;;;1.08;;
51358;SDS011;37448;51.588;7.248;2022-12-26T12:07:49;4.63;;;1.10;;
51358;SDS011;37448;51.588;7.248;2022-12-26T12:10:27;2.35;;;1.10;;
51358;SDS011;37448;51.588;7.248;2022-12-26T12:12:44;5.25;;;1.25;;
51358;SDS011;37448;51.588;7.248;2022-12-26T12:15:10;5.13;;;1.10;;
51358;SDS011;37448;51.588;7.248;2022-12-26T12:17:29;1.55;;;0.82;;
51358;SDS011;37448;51.588;7.248;2022-12-26T12:19:41;3.65;;;1.00;;
51358;SDS011;37448;51.588;7.248;2022-12-26T12:29:34;3.63;;;1.30;;
51358;SDS011;37448;51.588;7.248;2022-12-26T12:38:40;3.92;;;1.10;;
51358;SDS011;37448;51.588;7.248;2022-12-26T12:40:55;5.90;;;1.40;;
51358;SDS011;37448;51.588;7.248;2022-12-26T12:47:38;7.45;;;1.90;;
51358;SDS011;37448;51.588;7.248;2022-12-26T12:52:35;11.50;;;2.83;;
51358;SDS011;37448;51.588;7.248;2022-12-26T12:59:21;9.00;;;2.55;;
51358;SDS011;37448;51.588;7.248;2022-12-26T13:01:44;5.60;;;2.50;;
51358;SDS011;37448;51.588;7.248;2022-12-26T13:03:49;4.60;;;2.30;;
51358;SDS011;37448;51.588;7.248;2022-12-26T13:08:06;8.57;;;3.80;;
51358;SDS011;37448;51.588;7.248;2022-12-26T13:10:16;8.68;;;3.13;;
51358;SDS011;37448;51.588;7.248;2022-12-26T13:12:23;9.75;;;3.42;;
51358;SDS011;37448;51.588;7.248;2022-12-26T13:14:40;5.05;;;2.80;;
51358;SDS011;37448;51.588;7.248;2022-12-26T13:16:49;8.02;;;3.13;;
51358;SDS011;37448;51.588;7.248;2022-12-26T13:18:56;6.43;;;2.92;;
51358;SDS011;37448;51.588;7.248;2022-12-26T13:21:07;6.78;;;2.58;;
51358;SDS011;37448;51.588;7.248;2022-12-26T13:23:15;12.35;;;3.58;;
51358;SDS011;37448;51.588;7.248;2022-12-26T13:25:41;8.73;;;3.13;;
51358;SDS011;37448;51.588;7.248;2022-12-26T13:27:46;9.82;;;3.58;;
51358;SDS011;37448;51.588;7.248;2022-12-26T13:29:50;5.63;;;2.90;;
51358;SDS011;37448;51.588;7.248;2022-12-26T13:31:51;9.57;;;2.97;;
51358;SDS011;37448;51.588;7.248;2022-12-26T13:33:52;7.95;;;3.13;;
51358;SDS011;37448;51.588;7.248;2022-12-26T13:36:00;7.72;;;2.85;;
51358;SDS011;37448;51.588;7.248;2022-12-26T13:38:02;8.80;;;3.03;;
51358;SDS011;37448;51.588;7.248;2022-12-26T13:40:05;12.63;;;3.00;;
51358;SDS011;37448;51.588;7.248;2022-12-26T13:42:17;8.15;;;3.17;;
51358;SDS011;37448;51.588;7.248;2022-12-26T13:44:42;8.18;;;3.30;;
51358;SDS011;37448;51.588;7.248;2022-12-26T13:48:53;9.23;;;2.70;;
51358;SDS011;37448;51.588;7.248;2022-12-26T13:50:55;7.75;;;2.58;;
51358;SDS011;37448;51.588;7.248;2022-12-26T13:53:00;11.18;;;2.75;;
51358;SDS011;37448;51.588;7.248;2022-12-26T13:57:22;11.45;;;2.92;;
51358;SDS011;37448;51.588;7.248;2022-12-26T13:59:26;9.82;;;2.70;;
51358;SDS011;37448;51.588;7.248;2022-12-26T14:03:47;13.38;;;3.25;;
51358;SDS011;37448;51.588;7.248;2022-12-26T14:08:06;12.55;;;2.25;;
51358;SDS011;37448;51.588;7.248;2022-12-26T14:10:20;9.82;;;2.20;;
51358;SDS011;37448;51.588;7.248;2022-12-26T14:29:12;5.82;;;1.50;;
51358;SDS011;37448;51.588;7.248;2022-12-26T14:34:00;13.35;;;2.78;;
51358;SDS011;37448;51.588;7.248;2022-12-26T14:36:17;8.13;;;2.28;;
51358;SDS011;37448;51.588;7.248;2022-12-26T14:38:39;5.78;;;1.95;;
51358;SDS011;37448;51.588;7.248;2022-12-26T14:41:04;14.93;;;2.13;;
51358;SDS011;37448;51.588;7.248;2022-12-26T14:45:41;11.55;;;1.98;;
51358;SDS011;37448;51.588;7.248;2022-12-26T14:47:44;7.47;;;2.63;;
51358;SDS011;37448;51.588;7.248;2022-12-26T14:49:47;12.48;;;1.90;;
51358;SDS011;37448;51.588;7.248;2022-12-26T14:51:48;7.90;;;1.83;;